sensor_id;sensor_type;location;lat;lon;timestamp;P1;durP1;ratioP1;P2;durP2;ratioP2
48629;SDS011;34426;52.180;4.462;2022-10-16T00:00:36;8.38;;;0.93;;
48629;SDS011;34426;52.180;4.462;2022-10-16T00:03:03;3.53;;;1.05;;
48629;SDS011;34426;52.180;4.462;2022-10-16T00:05:29;9.63;;;1.70;;
48629;SDS011;34426;52.180;4.462;2022-10-16T00:07:55;4.72;;;1.25;;
48629;SDS011;34426;52.180;4.462;2022-10-16T00:10:22;7.18;;;1.52;;
48629;SDS011;34426;52.180;4.462;2022-10-16T00:12:48;5.35;;;1.30;;
48629;SDS011;34426;52.180;4.462;2022-10-16T00:15:17;3.67;;;1.13;;
48629;SDS011;34426;52.180;4.462;2022-10-16T00:17:43;5.22;;;1.33;;
48629;SDS011;34426;52.180;4.462;2022-10-16T00:20:09;6.35;;;1.15;;
48629;SDS011;34426;52.180;4.462;2022-10-16T00:22:35;3.10;;;1.00;;
48629;SDS011;34426;52.180;4.462;2022-10-16T00:25:01;7.80;;;1.00;;
48629;SDS011;34426;52.180;4.462;2022-10-16T00:27:28;5.93;;;1.38;;
48629;SDS011;34426;52.180;4.462;2022-10-16T00:29:54;6.78;;;1.02;;
48629;SDS011;34426;52.180;4.462;2022-10-16T00:32:22;2.53;;;0.88;;
48629;SDS011;34426;52.180;4.462;2022-10-16T00:34:48;6.88;;;1.20;;
48629;SDS011;34426;52.180;4.462;2022-10-16T00:37:15;7.40;;;1.42;;
48629;SDS011;34426;52.180;4.462;2022-10-16T00:39:41;5.10;;;1.20;;
48629;SDS011;34426;52.180;4.462;2022-10-16T00:42:09;5.03;;;1.27;;
48629;SDS011;34426;52.180;4.462;2022-10-16T00:44:43;4.38;;;1.20;;
48629;SDS011;34426;52.180;4.462;2022-10-16T00:47:09;3.67;;;1.00;;
48629;SDS011;34426;52.180;4.462;2022-10-16T00:49:38;5.03;;;1.17;;
48629;SDS011;34426;52.180;4.462;2022-10-16T00:52:04;5.32;;;0.75;;
48629;SDS011;34426;52.180;4.462;2022-10-16T00:54:31;3.83;;;1.10;;
48629;SDS011;34426;52.180;4.462;2022-10-16T00:56:58;5.35;;;1.27;;
48629;SDS011;34426;52.180;4.462;2022-10-16T00:59:26;3.58;;;0.80;;
48629;SDS011;34426;52.180;4.462;2022-10-16T01:01:53;2.75;;;0.88;;
48629;SDS011;34426;52.180;4.462;2022-10-16T01:04:20;3.83;;;1.00;;
48629;SDS011;34426;52.180;4.462;2022-10-16T01:06:50;3.55;;;0.90;;
48629;SDS011;34426;52.180;4.462;2022-10-16T01:09:21;7.95;;;1.50;;
48629;SDS011;34426;52.180;4.462;2022-10-16T01:11:52;3.65;;;0.82;;
48629;SDS011;34426;52.180;4.462;2022-10-16T01:14:21;5.78;;;0.75;;
48629;SDS011;34426;52.180;4.462;2022-10-16T01:16:48;4.18;;;0.90;;
48629;SDS011;34426;52.180;4.462;2022-10-16T01:19:16;4.55;;;0.75;;
48629;SDS011;34426;52.180;4.462;2022-10-16T01:21:46;2.28;;;0.75;;
48629;SDS011;34426;52.180;4.462;2022-10-16T01:24:17;2.70;;;0.75;;
48629;SDS011;34426;52.180;4.462;2022-10-16T01:27:08;3.40;;;0.90;;
48629;SDS011;34426;52.180;4.462;2022-10-16T01:29:36;4.20;;;0.70;;
48629;SDS011;34426;52.180;4.462;2022-10-16T01:32:05;6.25;;;0.80;;
48629;SDS011;34426;52.180;4.462;2022-10-16T01:34:33;5.82;;;1.00;;
48629;SDS011;34426;52.180;4.462;2022-10-16T01:37:02;5.32;;;0.80;;
48629;SDS011;34426;52.180;4.462;2022-10-16T01:39:31;6.85;;;0.93;;
48629;SDS011;34426;52.180;4.462;2022-10-16T01:41:59;6.47;;;0.90;;
48629;SDS011;34426;52.180;4.462;2022-10-16T01:44:29;6.00;;;1.90;;
48629;SDS011;34426;52.180;4.462;2022-10-16T01:46:56;5.80;;;0.95;;
48629;SDS011;34426;52.180;4.462;2022-10-16T01:49:23;6.53;;;0.98;;
48629;SDS011;34426;52.180;4.462;2022-10-16T01:51:50;6.70;;;1.10;;
48629;SDS011;34426;52.180;4.462;2022-10-16T01:54:18;2.92;;;1.10;;
48629;SDS011;34426;52.180;4.462;2022-10-16T01:56:45;4.82;;;1.20;;
48629;SDS011;34426;52.180;4.462;2022-10-16T01:59:13;7.90;;;1.30;;
48629;SDS011;34426;52.180;4.462;2022-10-16T02:01:43;9.95;;;1.30;;
48629;SDS011;34426;52.180;4.462;2022-10-16T02:04:11;5.35;;;0.95;;
48629;SDS011;34426;52.180;4.462;2022-10-16T02:06:40;7.50;;;1.30;;
48629;SDS011;34426;52.180;4.462;2022-10-16T02:09:06;4.30;;;1.15;;
48629;SDS011;34426;52.180;4.462;2022-10-16T02:11:32;5.85;;;0.93;;
48629;SDS011;34426;52.180;4.462;2022-10-16T02:13:59;3.15;;;0.98;;
48629;SDS011;34426;52.180;4.462;2022-10-16T02:16:32;4.28;;;1.00;;
48629;SDS011;34426;52.180;4.462;2022-10-16T02:19:01;4.72;;;1.15;;
48629;SDS011;34426;52.180;4.462;2022-10-16T02:21:28;3.33;;;1.05;;
48629;SDS011;34426;52.180;4.462;2022-10-16T02:23:56;7.43;;;1.10;;
48629;SDS011;34426;52.180;4.462;2022-10-16T02:26:28;3.47;;;1.10;;
48629;SDS011;34426;52.180;4.462;2022-10-16T02:28:57;3.53;;;1.13;;
48629;SDS011;34426;52.180;4.462;2022-10-16T02:31:26;4.20;;;1.25;;
48629;SDS011;34426;52.180;4.462;2022-10-16T02:33:53;2.45;;;1.13;;
48629;SDS011;34426;52.180;4.462;2022-10-16T02:36:22;5.32;;;1.48;;
48629;SDS011;34426;52.180;4.462;2022-10-16T02:38:49;8.00;;;1.35;;
48629;SDS011;34426;52.180;4.462;2022-10-16T02:41:15;6.15;;;1.40;;
48629;SDS011;34426;52.180;4.462;2022-10-16T02:43:41;4.05;;;1.50;;
48629;SDS011;34426;52.180;4.462;2022-10-16T02:46:08;3.45;;;1.60;;
48629;SDS011;34426;52.180;4.462;2022-10-16T02:48:34;4.53;;;1.30;;
48629;SDS011;34426;52.180;4.462;2022-10-16T02:51:00;8.07;;;1.40;;
48629;SDS011;34426;52.180;4.462;2022-10-16T02:53:28;5.80;;;1.88;;
48629;SDS011;34426;52.180;4.462;2022-10-16T02:55:55;4.35;;;1.50;;
48629;SDS011;34426;52.180;4.462;2022-10-16T02:58:21;6.88;;;1.58;;
48629;SDS011;34426;52.180;4.462;2022-10-16T03:00:47;5.55;;;1.70;;
48629;SDS011;34426;52.180;4.462;2022-10-16T03:03:13;6.60;;;2.13;;
48629;SDS011;34426;52.180;4.462;2022-10-16T03:05:39;7.55;;;1.77;;
48629;SDS011;34426;52.180;4.462;2022-10-16T03:08:06;4.97;;;1.67;;
48629;SDS011;34426;52.180;4.462;2022-10-16T03:10:34;4.88;;;1.83;;
48629;SDS011;34426;52.180;4.462;2022-10-16T03:13:00;4.82;;;1.58;;
48629;SDS011;34426;52.180;4.462;2022-10-16T03:15:26;6.93;;;2.00;;
48629;SDS011;34426;52.180;4.462;2022-10-16T03:17:52;4.85;;;1.50;;
48629;SDS011;34426;52.180;4.462;2022-10-16T03:20:19;11.82;;;1.48;;
48629;SDS011;34426;52.180;4.462;2022-10-16T03:22:45;8.70;;;1.60;;
48629;SDS011;34426;52.180;4.462;2022-10-16T03:25:11;8.45;;;1.85;;
48629;SDS011;34426;52.180;4.462;2022-10-16T03:27:39;8.63;;;1.60;;
48629;SDS011;34426;52.180;4.462;2022-10-16T03:30:06;7.97;;;1.90;;
48629;SDS011;34426;52.180;4.462;2022-10-16T03:32:32;8.18;;;1.77;;
48629;SDS011;34426;52.180;4.462;2022-10-16T03:34:58;8.98;;;1.40;;
48629;SDS011;34426;52.180;4.462;2022-10-16T03:37:25;8.15;;;1.48;;
48629;SDS011;34426;52.180;4.462;2022-10-16T03:39:51;6.78;;;1.52;;
48629;SDS011;34426;52.180;4.462;2022-10-16T03:42:17;11.25;;;1.42;;
48629;SDS011;34426;52.180;4.462;2022-10-16T03:44:45;7.32;;;1.10;;
48629;SDS011;34426;52.180;4.462;2022-10-16T03:47:12;9.95;;;1.63;;
48629;SDS011;34426;52.180;4.462;2022-10-16T03:49:38;5.80;;;1.33;;
48629;SDS011;34426;52.180;4.462;2022-10-16T03:52:04;7.13;;;1.10;;
48629;SDS011;34426;52.180;4.462;2022-10-16T03:54:30;7.05;;;1.50;;
48629;SDS011;34426;52.180;4.462;2022-10-16T03:56:57;8.25;;;1.20;;
48629;SDS011;34426;52.180;4.462;2022-10-16T03:59:23;7.72;;;1.40;;
48629;SDS011;34426;52.180;4.462;2022-10-16T04:01:51;8.38;;;1.60;;
48629;SDS011;34426;52.180;4.462;2022-10-16T04:04:17;6.88;;;1.75;;
48629;SDS011;34426;52.180;4.462;2022-10-16T04:06:44;14.00;;;1.25;;
48629;SDS011;34426;52.180;4.462;2022-10-16T04:09:10;10.82;;;1.40;;
48629;SDS011;34426;52.180;4.462;2022-10-16T04:11:36;8.77;;;1.45;;
48629;SDS011;34426;52.180;4.462;2022-10-16T04:14:02;7.82;;;1.30;;
48629;SDS011;34426;52.180;4.462;2022-10-16T04:16:29;10.02;;;1.30;;
48629;SDS011;34426;52.180;4.462;2022-10-16T04:18:57;10.57;;;1.33;;
48629;SDS011;34426;52.180;4.462;2022-10-16T04:21:23;8.35;;;1.42;;
48629;SDS011;34426;52.180;4.462;2022-10-16T04:23:49;10.70;;;1.73;;
48629;SDS011;34426;52.180;4.462;2022-10-16T04:26:15;9.48;;;1.70;;
48629;SDS011;34426;52.180;4.462;2022-10-16T04:28:41;7.93;;;1.27;;
48629;SDS011;34426;52.180;4.462;2022-10-16T04:31:08;10.20;;;1.15;;
48629;SDS011;34426;52.180;4.462;2022-10-16T04:33:34;8.43;;;1.23;;
48629;SDS011;34426;52.180;4.462;2022-10-16T04:36:03;5.15;;;1.00;;
48629;SDS011;34426;52.180;4.462;2022-10-16T04:38:29;5.15;;;1.30;;
48629;SDS011;34426;52.180;4.462;2022-10-16T04:40:55;8.27;;;1.27;;
48629;SDS011;34426;52.180;4.462;2022-10-16T04:43:22;4.22;;;1.02;;
48629;SDS011;34426;52.180;4.462;2022-10-16T04:45:48;5.10;;;1.65;;
48629;SDS011;34426;52.180;4.462;2022-10-16T04:48:14;10.27;;;1.10;;
48629;SDS011;34426;52.180;4.462;2022-10-16T04:50:40;7.10;;;1.70;;
48629;SDS011;34426;52.180;4.462;2022-10-16T04:53:08;6.80;;;1.30;;
48629;SDS011;34426;52.180;4.462;2022-10-16T04:55:35;10.73;;;1.48;;
48629;SDS011;34426;52.180;4.462;2022-10-16T04:58:01;8.20;;;1.45;;
48629;SDS011;34426;52.180;4.462;2022-10-16T05:00:27;7.72;;;1.45;;
48629;SDS011;34426;52.180;4.462;2022-10-16T05:02:53;11.98;;;1.88;;
48629;SDS011;34426;52.180;4.462;2022-10-16T05:05:19;5.85;;;1.33;;
48629;SDS011;34426;52.180;4.462;2022-10-16T05:07:46;8.93;;;1.40;;
48629;SDS011;34426;52.180;4.462;2022-10-16T05:10:14;4.60;;;1.40;;
48629;SDS011;34426;52.180;4.462;2022-10-16T05:12:40;7.20;;;1.27;;
48629;SDS011;34426;52.180;4.462;2022-10-16T05:15:07;6.82;;;1.77;;
48629;SDS011;34426;52.180;4.462;2022-10-16T05:17:33;5.45;;;1.23;;
48629;SDS011;34426;52.180;4.462;2022-10-16T05:19:59;7.65;;;1.23;;
48629;SDS011;34426;52.180;4.462;2022-10-16T05:22:26;7.13;;;1.70;;
48629;SDS011;34426;52.180;4.462;2022-10-16T05:24:52;9.95;;;1.80;;
48629;SDS011;34426;52.180;4.462;2022-10-16T05:27:20;7.25;;;1.65;;
48629;SDS011;34426;52.180;4.462;2022-10-16T05:29:46;5.20;;;1.58;;
48629;SDS011;34426;52.180;4.462;2022-10-16T05:32:12;4.68;;;1.00;;
48629;SDS011;34426;52.180;4.462;2022-10-16T05:34:39;4.28;;;1.35;;
48629;SDS011;34426;52.180;4.462;2022-10-16T05:37:05;6.43;;;1.75;;
48629;SDS011;34426;52.180;4.462;2022-10-16T05:39:31;7.82;;;1.70;;
48629;SDS011;34426;52.180;4.462;2022-10-16T05:41:57;16.67;;;3.05;;
48629;SDS011;34426;52.180;4.462;2022-10-16T05:44:25;13.13;;;2.17;;
48629;SDS011;34426;52.180;4.462;2022-10-16T05:46:52;7.72;;;1.77;;
48629;SDS011;34426;52.180;4.462;2022-10-16T05:49:18;9.73;;;1.70;;
48629;SDS011;34426;52.180;4.462;2022-10-16T05:51:44;8.73;;;1.95;;
48629;SDS011;34426;52.180;4.462;2022-10-16T05:54:11;12.05;;;2.13;;
48629;SDS011;34426;52.180;4.462;2022-10-16T05:56:37;7.90;;;1.92;;
48629;SDS011;34426;52.180;4.462;2022-10-16T05:59:03;6.72;;;2.05;;
48629;SDS011;34426;52.180;4.462;2022-10-16T06:01:32;9.57;;;1.90;;
48629;SDS011;34426;52.180;4.462;2022-10-16T06:03:58;10.57;;;2.28;;
48629;SDS011;34426;52.180;4.462;2022-10-16T06:06:24;12.40;;;3.08;;
48629;SDS011;34426;52.180;4.462;2022-10-16T06:08:51;5.90;;;1.95;;
48629;SDS011;34426;52.180;4.462;2022-10-16T06:11:18;12.30;;;3.22;;
48629;SDS011;34426;52.180;4.462;2022-10-16T06:13:44;6.90;;;2.05;;
48629;SDS011;34426;52.180;4.462;2022-10-16T06:16:11;7.85;;;2.30;;
48629;SDS011;34426;52.180;4.462;2022-10-16T06:18:39;6.95;;;2.63;;
48629;SDS011;34426;52.180;4.462;2022-10-16T06:21:07;15.23;;;2.45;;
48629;SDS011;34426;52.180;4.462;2022-10-16T06:23:34;14.00;;;2.28;;
48629;SDS011;34426;52.180;4.462;2022-10-16T06:26:04;11.10;;;2.65;;
48629;SDS011;34426;52.180;4.462;2022-10-16T06:28:30;8.18;;;1.88;;
48629;SDS011;34426;52.180;4.462;2022-10-16T06:30:58;6.30;;;2.20;;
48629;SDS011;34426;52.180;4.462;2022-10-16T06:33:25;5.78;;;2.08;;
48629;SDS011;34426;52.180;4.462;2022-10-16T06:35:53;15.20;;;2.08;;
48629;SDS011;34426;52.180;4.462;2022-10-16T06:38:19;23.58;;;2.58;;
48629;SDS011;34426;52.180;4.462;2022-10-16T06:40:45;11.13;;;1.65;;
48629;SDS011;34426;52.180;4.462;2022-10-16T06:43:11;8.95;;;1.92;;
48629;SDS011;34426;52.180;4.462;2022-10-16T06:45:38;12.60;;;2.60;;
48629;SDS011;34426;52.180;4.462;2022-10-16T06:48:04;9.45;;;2.47;;
48629;SDS011;34426;52.180;4.462;2022-10-16T06:50:30;15.20;;;3.10;;
48629;SDS011;34426;52.180;4.462;2022-10-16T06:52:58;10.85;;;2.08;;
48629;SDS011;34426;52.180;4.462;2022-10-16T06:55:24;11.90;;;2.40;;
48629;SDS011;34426;52.180;4.462;2022-10-16T06:57:51;21.38;;;2.63;;
48629;SDS011;34426;52.180;4.462;2022-10-16T07:00:17;19.48;;;2.47;;
48629;SDS011;34426;52.180;4.462;2022-10-16T07:02:43;18.73;;;2.33;;
48629;SDS011;34426;52.180;4.462;2022-10-16T07:05:10;16.90;;;2.33;;
48629;SDS011;34426;52.180;4.462;2022-10-16T07:07:36;11.23;;;2.47;;
48629;SDS011;34426;52.180;4.462;2022-10-16T07:10:04;11.45;;;1.90;;
48629;SDS011;34426;52.180;4.462;2022-10-16T07:12:30;12.30;;;2.03;;
48629;SDS011;34426;52.180;4.462;2022-10-16T07:14:56;11.98;;;2.20;;
48629;SDS011;34426;52.180;4.462;2022-10-16T07:17:22;19.08;;;2.20;;
48629;SDS011;34426;52.180;4.462;2022-10-16T07:19:49;16.60;;;2.47;;
48629;SDS011;34426;52.180;4.462;2022-10-16T07:22:15;13.77;;;2.28;;
48629;SDS011;34426;52.180;4.462;2022-10-16T07:24:41;16.65;;;2.33;;
48629;SDS011;34426;52.180;4.462;2022-10-16T07:27:08;16.77;;;2.22;;
48629;SDS011;34426;52.180;4.462;2022-10-16T07:29:35;11.32;;;1.95;;
48629;SDS011;34426;52.180;4.462;2022-10-16T07:32:01;13.48;;;3.13;;
48629;SDS011;34426;52.180;4.462;2022-10-16T07:34:28;16.27;;;2.50;;
48629;SDS011;34426;52.180;4.462;2022-10-16T07:36:54;16.77;;;2.50;;
48629;SDS011;34426;52.180;4.462;2022-10-16T07:39:20;15.23;;;2.78;;
48629;SDS011;34426;52.180;4.462;2022-10-16T07:41:46;16.40;;;3.20;;
48629;SDS011;34426;52.180;4.462;2022-10-16T07:44:15;15.95;;;2.40;;
48629;SDS011;34426;52.180;4.462;2022-10-16T07:46:41;14.20;;;2.42;;
48629;SDS011;34426;52.180;4.462;2022-10-16T07:49:08;16.05;;;2.30;;
48629;SDS011;34426;52.180;4.462;2022-10-16T07:51:34;16.20;;;2.45;;
48629;SDS011;34426;52.180;4.462;2022-10-16T07:54:00;17.27;;;2.30;;
48629;SDS011;34426;52.180;4.462;2022-10-16T07:56:27;23.13;;;2.63;;
48629;SDS011;34426;52.180;4.462;2022-10-16T07:58:53;16.85;;;3.50;;
48629;SDS011;34426;52.180;4.462;2022-10-16T08:01:21;18.52;;;2.35;;
48629;SDS011;34426;52.180;4.462;2022-10-16T08:03:47;16.13;;;2.40;;
48629;SDS011;34426;52.180;4.462;2022-10-16T08:06:14;16.45;;;2.67;;
48629;SDS011;34426;52.180;4.462;2022-10-16T08:08:40;13.52;;;2.47;;
48629;SDS011;34426;52.180;4.462;2022-10-16T08:11:07;11.90;;;2.95;;
48629;SDS011;34426;52.180;4.462;2022-10-16T08:13:33;13.40;;;2.17;;
48629;SDS011;34426;52.180;4.462;2022-10-16T08:15:59;18.27;;;2.70;;
48629;SDS011;34426;52.180;4.462;2022-10-16T08:18:27;15.50;;;2.17;;
48629;SDS011;34426;52.180;4.462;2022-10-16T08:20:57;15.38;;;2.72;;
48629;SDS011;34426;52.180;4.462;2022-10-16T08:23:23;25.30;;;3.47;;
48629;SDS011;34426;52.180;4.462;2022-10-16T08:25:50;20.88;;;3.90;;
48629;SDS011;34426;52.180;4.462;2022-10-16T08:28:16;16.85;;;3.22;;
48629;SDS011;34426;52.180;4.462;2022-10-16T08:30:42;21.60;;;2.88;;
48629;SDS011;34426;52.180;4.462;2022-10-16T08:33:08;16.38;;;3.00;;
48629;SDS011;34426;52.180;4.462;2022-10-16T08:35:36;17.45;;;3.00;;
48629;SDS011;34426;52.180;4.462;2022-10-16T08:38:03;20.25;;;2.28;;
48629;SDS011;34426;52.180;4.462;2022-10-16T08:40:30;19.35;;;2.90;;
48629;SDS011;34426;52.180;4.462;2022-10-16T08:43:00;17.88;;;2.75;;
48629;SDS011;34426;52.180;4.462;2022-10-16T08:45:44;20.10;;;2.80;;
48629;SDS011;34426;52.180;4.462;2022-10-16T08:48:17;25.92;;;4.60;;
48629;SDS011;34426;52.180;4.462;2022-10-16T08:50:47;18.88;;;2.75;;
48629;SDS011;34426;52.180;4.462;2022-10-16T08:53:19;14.18;;;2.55;;
48629;SDS011;34426;52.180;4.462;2022-10-16T08:55:46;19.73;;;2.35;;
48629;SDS011;34426;52.180;4.462;2022-10-16T08:58:15;22.20;;;3.35;;
48629;SDS011;34426;52.180;4.462;2022-10-16T09:00:42;23.58;;;4.38;;
48629;SDS011;34426;52.180;4.462;2022-10-16T09:03:13;17.40;;;3.22;;
48629;SDS011;34426;52.180;4.462;2022-10-16T09:06:04;17.88;;;3.13;;
48629;SDS011;34426;52.180;4.462;2022-10-16T09:08:34;22.90;;;2.58;;
48629;SDS011;34426;52.180;4.462;2022-10-16T09:11:03;24.95;;;3.67;;
48629;SDS011;34426;52.180;4.462;2022-10-16T09:13:33;24.02;;;3.40;;
48629;SDS011;34426;52.180;4.462;2022-10-16T09:16:06;28.50;;;3.67;;
48629;SDS011;34426;52.180;4.462;2022-10-16T09:18:37;21.33;;;3.55;;
48629;SDS011;34426;52.180;4.462;2022-10-16T09:21:08;19.58;;;3.90;;
48629;SDS011;34426;52.180;4.462;2022-10-16T09:23:36;23.85;;;3.63;;
48629;SDS011;34426;52.180;4.462;2022-10-16T09:26:02;22.50;;;2.83;;
48629;SDS011;34426;52.180;4.462;2022-10-16T09:28:29;21.05;;;3.38;;
48629;SDS011;34426;52.180;4.462;2022-10-16T09:30:55;20.27;;;3.28;;
48629;SDS011;34426;52.180;4.462;2022-10-16T09:33:22;24.13;;;3.65;;
48629;SDS011;34426;52.180;4.462;2022-10-16T09:35:55;29.42;;;4.07;;
48629;SDS011;34426;52.180;4.462;2022-10-16T09:38:26;29.70;;;4.15;;
48629;SDS011;34426;52.180;4.462;2022-10-16T09:40:52;19.67;;;3.72;;
48629;SDS011;34426;52.180;4.462;2022-10-16T09:43:22;23.67;;;4.43;;
48629;SDS011;34426;52.180;4.462;2022-10-16T09:45:56;18.42;;;3.00;;
48629;SDS011;34426;52.180;4.462;2022-10-16T09:48:22;23.85;;;3.53;;
48629;SDS011;34426;52.180;4.462;2022-10-16T09:50:55;19.95;;;3.58;;
48629;SDS011;34426;52.180;4.462;2022-10-16T09:53:21;22.55;;;3.67;;
48629;SDS011;34426;52.180;4.462;2022-10-16T09:55:52;27.85;;;4.07;;
48629;SDS011;34426;52.180;4.462;2022-10-16T09:58:21;21.23;;;3.67;;
48629;SDS011;34426;52.180;4.462;2022-10-16T10:00:49;28.77;;;4.47;;
48629;SDS011;34426;52.180;4.462;2022-10-16T10:03:15;23.33;;;4.32;;
48629;SDS011;34426;52.180;4.462;2022-10-16T10:05:50;21.13;;;4.15;;
48629;SDS011;34426;52.180;4.462;2022-10-16T10:08:16;31.33;;;4.03;;
48629;SDS011;34426;52.180;4.462;2022-10-16T10:10:44;26.35;;;4.75;;
48629;SDS011;34426;52.180;4.462;2022-10-16T10:13:19;23.65;;;4.28;;
48629;SDS011;34426;52.180;4.462;2022-10-16T10:15:44;25.50;;;5.20;;
48629;SDS011;34426;52.180;4.462;2022-10-16T10:18:15;18.92;;;3.65;;
48629;SDS011;34426;52.180;4.462;2022-10-16T10:20:42;20.33;;;3.00;;
48629;SDS011;34426;52.180;4.462;2022-10-16T10:23:19;27.17;;;4.15;;
48629;SDS011;34426;52.180;4.462;2022-10-16T10:25:49;28.67;;;3.70;;
48629;SDS011;34426;52.180;4.462;2022-10-16T10:28:24;23.25;;;3.65;;
48629;SDS011;34426;52.180;4.462;2022-10-16T10:30:55;31.90;;;4.35;;
48629;SDS011;34426;52.180;4.462;2022-10-16T10:33:28;21.73;;;4.10;;
48629;SDS011;34426;52.180;4.462;2022-10-16T10:38:29;24.25;;;3.65;;
48629;SDS011;34426;52.180;4.462;2022-10-16T10:41:00;20.95;;;3.38;;
48629;SDS011;34426;52.180;4.462;2022-10-16T10:43:37;18.67;;;3.13;;
48629;SDS011;34426;52.180;4.462;2022-10-16T10:46:08;25.60;;;3.20;;
48629;SDS011;34426;52.180;4.462;2022-10-16T10:51:22;23.38;;;2.90;;
48629;SDS011;34426;52.180;4.462;2022-10-16T10:53:52;17.02;;;3.08;;
48629;SDS011;34426;52.180;4.462;2022-10-16T10:56:24;20.88;;;3.30;;
48629;SDS011;34426;52.180;4.462;2022-10-16T10:59:01;24.75;;;4.32;;
48629;SDS011;34426;52.180;4.462;2022-10-16T11:01:33;24.10;;;4.43;;
48629;SDS011;34426;52.180;4.462;2022-10-16T11:04:11;25.95;;;3.55;;
48629;SDS011;34426;52.180;4.462;2022-10-16T11:06:40;25.88;;;3.67;;
48629;SDS011;34426;52.180;4.462;2022-10-16T11:09:12;18.52;;;3.55;;
48629;SDS011;34426;52.180;4.462;2022-10-16T11:11:41;21.80;;;4.13;;
48629;SDS011;34426;52.180;4.462;2022-10-16T11:14:14;23.88;;;3.42;;
48629;SDS011;34426;52.180;4.462;2022-10-16T11:16:43;18.92;;;3.38;;
48629;SDS011;34426;52.180;4.462;2022-10-16T11:19:12;22.88;;;3.60;;
48629;SDS011;34426;52.180;4.462;2022-10-16T11:21:42;26.27;;;3.20;;
48629;SDS011;34426;52.180;4.462;2022-10-16T11:24:11;22.92;;;3.42;;
48629;SDS011;34426;52.180;4.462;2022-10-16T11:26:41;21.92;;;3.42;;
48629;SDS011;34426;52.180;4.462;2022-10-16T11:29:10;19.75;;;3.95;;
48629;SDS011;34426;52.180;4.462;2022-10-16T11:31:41;23.38;;;4.05;;
48629;SDS011;34426;52.180;4.462;2022-10-16T11:34:10;22.83;;;2.95;;
48629;SDS011;34426;52.180;4.462;2022-10-16T11:36:38;12.88;;;2.88;;
48629;SDS011;34426;52.180;4.462;2022-10-16T11:39:09;22.15;;;2.92;;
48629;SDS011;34426;52.180;4.462;2022-10-16T11:41:39;20.98;;;3.85;;
48629;SDS011;34426;52.180;4.462;2022-10-16T11:44:18;17.55;;;2.95;;
48629;SDS011;34426;52.180;4.462;2022-10-16T11:46:48;15.68;;;2.40;;
48629;SDS011;34426;52.180;4.462;2022-10-16T11:49:17;18.83;;;3.38;;
48629;SDS011;34426;52.180;4.462;2022-10-16T11:51:47;20.73;;;3.58;;
48629;SDS011;34426;52.180;4.462;2022-10-16T11:54:18;24.70;;;3.53;;
48629;SDS011;34426;52.180;4.462;2022-10-16T11:56:46;10.77;;;2.45;;
48629;SDS011;34426;52.180;4.462;2022-10-16T11:59:15;16.83;;;2.75;;
48629;SDS011;34426;52.180;4.462;2022-10-16T12:01:52;19.88;;;3.20;;
48629;SDS011;34426;52.180;4.462;2022-10-16T12:04:22;16.23;;;2.90;;
48629;SDS011;34426;52.180;4.462;2022-10-16T12:06:52;16.03;;;2.70;;
48629;SDS011;34426;52.180;4.462;2022-10-16T12:09:21;10.95;;;3.00;;
48629;SDS011;34426;52.180;4.462;2022-10-16T12:11:48;13.70;;;2.67;;
48629;SDS011;34426;52.180;4.462;2022-10-16T12:14:34;20.73;;;3.88;;
48629;SDS011;34426;52.180;4.462;2022-10-16T12:17:04;12.65;;;2.72;;
48629;SDS011;34426;52.180;4.462;2022-10-16T12:19:30;20.75;;;2.78;;
48629;SDS011;34426;52.180;4.462;2022-10-16T12:21:57;18.60;;;3.22;;
48629;SDS011;34426;52.180;4.462;2022-10-16T12:24:33;23.17;;;3.00;;
48629;SDS011;34426;52.180;4.462;2022-10-16T12:27:00;21.02;;;3.25;;
48629;SDS011;34426;52.180;4.462;2022-10-16T12:29:31;19.10;;;2.70;;
48629;SDS011;34426;52.180;4.462;2022-10-16T12:32:05;21.10;;;2.70;;
48629;SDS011;34426;52.180;4.462;2022-10-16T12:34:44;19.33;;;3.47;;
48629;SDS011;34426;52.180;4.462;2022-10-16T12:37:14;19.25;;;3.08;;
48629;SDS011;34426;52.180;4.462;2022-10-16T12:39:44;10.75;;;1.83;;
48629;SDS011;34426;52.180;4.462;2022-10-16T12:42:21;19.38;;;2.58;;
48629;SDS011;34426;52.180;4.462;2022-10-16T12:44:47;14.90;;;2.47;;
48629;SDS011;34426;52.180;4.462;2022-10-16T12:47:34;16.23;;;2.65;;
48629;SDS011;34426;52.180;4.462;2022-10-16T12:50:21;18.92;;;3.42;;
48629;SDS011;34426;52.180;4.462;2022-10-16T12:52:48;13.20;;;3.10;;
48629;SDS011;34426;52.180;4.462;2022-10-16T12:55:16;15.40;;;2.92;;
48629;SDS011;34426;52.180;4.462;2022-10-16T12:57:48;13.30;;;2.97;;
48629;SDS011;34426;52.180;4.462;2022-10-16T13:00:24;17.15;;;3.08;;
48629;SDS011;34426;52.180;4.462;2022-10-16T13:03:04;13.73;;;2.50;;
48629;SDS011;34426;52.180;4.462;2022-10-16T13:05:41;17.60;;;2.45;;
48629;SDS011;34426;52.180;4.462;2022-10-16T13:10:52;14.40;;;2.88;;
48629;SDS011;34426;52.180;4.462;2022-10-16T13:13:28;18.55;;;3.15;;
48629;SDS011;34426;52.180;4.462;2022-10-16T13:16:03;18.60;;;3.10;;
48629;SDS011;34426;52.180;4.462;2022-10-16T13:18:36;15.15;;;3.30;;
48629;SDS011;34426;52.180;4.462;2022-10-16T13:21:12;17.60;;;2.78;;
48629;SDS011;34426;52.180;4.462;2022-10-16T13:23:44;19.45;;;3.63;;
48629;SDS011;34426;52.180;4.462;2022-10-16T13:26:19;17.25;;;3.13;;
48629;SDS011;34426;52.180;4.462;2022-10-16T13:28:51;14.95;;;2.95;;
48629;SDS011;34426;52.180;4.462;2022-10-16T13:31:18;15.77;;;2.67;;
48629;SDS011;34426;52.180;4.462;2022-10-16T13:33:47;16.13;;;2.80;;
48629;SDS011;34426;52.180;4.462;2022-10-16T13:36:18;17.27;;;3.20;;
48629;SDS011;34426;52.180;4.462;2022-10-16T13:38:45;11.45;;;2.83;;
48629;SDS011;34426;52.180;4.462;2022-10-16T13:41:14;16.25;;;3.35;;
48629;SDS011;34426;52.180;4.462;2022-10-16T13:43:41;20.52;;;3.72;;
48629;SDS011;34426;52.180;4.462;2022-10-16T13:46:14;19.40;;;2.78;;
48629;SDS011;34426;52.180;4.462;2022-10-16T13:48:40;13.57;;;2.95;;
48629;SDS011;34426;52.180;4.462;2022-10-16T13:51:13;14.38;;;3.00;;
48629;SDS011;34426;52.180;4.462;2022-10-16T13:53:40;16.10;;;3.88;;
48629;SDS011;34426;52.180;4.462;2022-10-16T13:56:09;18.73;;;3.30;;
48629;SDS011;34426;52.180;4.462;2022-10-16T13:58:38;13.52;;;2.95;;
48629;SDS011;34426;52.180;4.462;2022-10-16T14:01:05;19.65;;;2.55;;
48629;SDS011;34426;52.180;4.462;2022-10-16T14:03:32;16.15;;;3.40;;
48629;SDS011;34426;52.180;4.462;2022-10-16T14:06:01;11.73;;;2.88;;
48629;SDS011;34426;52.180;4.462;2022-10-16T14:08:33;21.70;;;3.40;;
48629;SDS011;34426;52.180;4.462;2022-10-16T14:11:02;12.55;;;2.55;;
48629;SDS011;34426;52.180;4.462;2022-10-16T14:13:29;18.42;;;3.53;;
48629;SDS011;34426;52.180;4.462;2022-10-16T14:15:56;13.07;;;3.00;;
48629;SDS011;34426;52.180;4.462;2022-10-16T14:18:23;18.73;;;3.15;;
48629;SDS011;34426;52.180;4.462;2022-10-16T14:20:50;16.73;;;3.45;;
48629;SDS011;34426;52.180;4.462;2022-10-16T14:23:20;16.23;;;2.60;;
48629;SDS011;34426;52.180;4.462;2022-10-16T14:25:49;25.63;;;3.70;;
48629;SDS011;34426;52.180;4.462;2022-10-16T14:28:16;14.70;;;3.08;;
48629;SDS011;34426;52.180;4.462;2022-10-16T14:30:49;15.25;;;3.15;;
48629;SDS011;34426;52.180;4.462;2022-10-16T14:33:20;29.65;;;4.18;;
48629;SDS011;34426;52.180;4.462;2022-10-16T14:35:46;15.82;;;2.95;;
48629;SDS011;34426;52.180;4.462;2022-10-16T14:38:22;15.40;;;2.63;;
48629;SDS011;34426;52.180;4.462;2022-10-16T14:40:52;17.75;;;3.35;;
48629;SDS011;34426;52.180;4.462;2022-10-16T14:43:22;16.67;;;2.97;;
48629;SDS011;34426;52.180;4.462;2022-10-16T14:48:18;21.27;;;3.80;;
48629;SDS011;34426;52.180;4.462;2022-10-16T14:50:52;20.65;;;3.67;;
48629;SDS011;34426;52.180;4.462;2022-10-16T14:53:18;18.20;;;3.65;;
48629;SDS011;34426;52.180;4.462;2022-10-16T14:55:44;14.38;;;2.92;;
48629;SDS011;34426;52.180;4.462;2022-10-16T14:58:15;18.05;;;3.10;;